Time;durP1;ratioP1;P1;durP2;ratioP2;P2;SDS_P1;SDS_P2;PMS_P1;PMS_P2;Temp;Humidity;BMP_temperature;BMP_pressure;BME280_temperature;BME280_humidity;BME280_pressure;Samples;Min_cycle;Max_cycle;Signal;HPM_P1;HPM_P2
2023/03/24 00:00:45;;;;;;;;;;;;;;;11.33;86.82;95661.44;5036483;28;19947;-71
2023/03/24 00:03:11;;;;;;;;;;;;;;;11.28;87.59;95657.97;5036089;28;19980;-71
2023/03/24 00:05:39;;;;;;;;;;;;;;;11.27;86.86;95657.16;5036145;28;19949;-71
2023/03/24 00:08:05;;;;;;;;;;;;;;;11.25;87.86;95659.22;5036675;28;19946;-75
2023/03/24 00:10:33;;;;;;;;;;;;;;;11.24;88.54;95660.25;5036088;28;19996;-68
2023/03/24 00:12:59;;;;;;;;;;;;;;;11.24;86.28;95643.72;5035805;28;19951;-68
2023/03/24 00:15:25;;;;;;;;;;;;;;;11.25;86.53;95643.47;5035866;28;19951;-68
2023/03/24 00:17:51;;;;;;;;;;;;;;;11.27;86.23;95644.03;5035857;28;19943;-68
2023/03/24 00:20:19;;;;;;;;;;;;;;;11.28;86.30;95647.47;5036013;28;19957;-68
2023/03/24 00:22:47;;;;;;;;;;;;;;;11.26;87.12;95649.53;5035814;28;20309;-67
2023/03/24 00:25:13;;;;;;;;;;;;;;;11.27;87.08;95643.25;5036597;28;20379;-67
2023/03/24 00:27:40;;;;;;;;;;;;;;;11.29;85.83;95635.91;5035813;28;19938;-71
2023/03/24 00:30:07;;;;;;;;;;;;;;;11.28;85.29;95636.97;5035735;28;19946;-70
2023/03/24 00:32:35;;;;;;;;;;;;;;;11.28;85.27;95636.97;5035604;28;20308;-70
2023/03/24 00:35:02;;;;;;;;;;;;;;;11.28;85.32;95627.25;5035582;28;20030;-71
2023/03/24 00:37:28;;;;;;;;;;;;;;;11.31;85.88;95632.00;5035955;28;19964;-70
2023/03/24 00:39:54;;;;;;;;;;;;;;;11.33;86.70;95635.19;5035394;28;19959;-71
2023/03/24 00:42:21;;;;;;;;;;;;;;;11.34;86.05;95631.53;5036190;28;19938;-71
2023/03/24 00:44:46;;;;;;;;;;;;;;;11.33;84.80;95605.53;5035940;28;19939;-72
2023/03/24 00:47:12;;;;;;;;;;;;;;;11.33;83.76;95602.91;5035195;28;19937;-71
2023/03/24 00:49:41;;;;;;;;;;;;;;;11.34;83.47;95583.50;5035346;28;19942;-68
2023/03/24 00:52:16;;;;;;;;;;;;;;;11.32;84.02;95575.06;5036169;28;19946;-67
2023/03/24 00:54:44;;;;;;;;;;;;;;;11.31;83.74;95571.63;5035293;28;20312;-68
2023/03/24 00:57:11;;;;;;;;;;;;;;;11.32;84.22;95578.50;5035936;28;19943;-67
2023/03/24 00:59:41;;;;;;;;;;;;;;;11.34;84.24;95575.63;5034136;28;19963;-67
2023/03/24 01:02:13;;;;;;;;;;;;;;;11.33;84.74;95564.31;5034931;28;19964;-67
2023/03/24 01:04:39;;;;;;;;;;;;;;;11.31;84.75;95563.75;5035773;28;19942;-72
2023/03/24 01:07:06;;;;;;;;;;;;;;;11.29;85.26;95568.47;5034962;28;19941;-68
2023/03/24 01:09:35;;;;;;;;;;;;;;;11.27;85.08;95560.03;5034953;28;20406;-69
2023/03/24 01:12:02;;;;;;;;;;;;;;;11.25;85.40;95556.88;5035152;28;19943;-70
2023/03/24 01:14:32;;;;;;;;;;;;;;;11.24;85.24;95557.91;5035057;28;19946;-69
2023/03/24 01:16:58;;;;;;;;;;;;;;;11.22;85.51;95557.38;5034824;28;19940;-70
2023/03/24 01:19:24;;;;;;;;;;;;;;;11.20;86.20;95548.16;5033799;28;19955;-70
2023/03/24 01:21:53;;;;;;;;;;;;;;;11.17;85.47;95536.28;5034763;28;20445;-76
2023/03/24 01:24:20;;;;;;;;;;;;;;;11.14;86.61;95542.81;5035728;28;19943;-76
2023/03/24 01:26:46;;;;;;;;;;;;;;;11.11;86.41;95553.81;5033263;28;20428;-76
2023/03/24 01:29:12;;;;;;;;;;;;;;;11.08;85.60;95545.63;5034396;28;19943;-75
2023/03/24 01:31:38;;;;;;;;;;;;;;;11.08;84.53;95545.63;5035236;28;20385;-76
2023/03/24 01:34:04;;;;;;;;;;;;;;;11.05;84.76;95536.41;5034259;28;19987;-75
2023/03/24 01:36:30;;;;;;;;;;;;;;;11.04;86.02;95545.31;5035049;28;19961;-76
2023/03/24 01:38:59;;;;;;;;;;;;;;;11.02;86.36;95536.09;5035150;28;19959;-76
2023/03/24 01:41:26;;;;;;;;;;;;;;;10.99;86.51;95534.75;5034396;28;19944;-71
2023/03/24 01:43:52;;;;;;;;;;;;;;;10.97;87.00;95542.09;5034858;28;19945;-68
2023/03/24 01:46:19;;;;;;;;;;;;;;;10.93;87.47;95560.13;5034125;28;19947;-69
2023/03/24 01:48:45;;;;;;;;;;;;;;;10.90;87.18;95538.84;5034889;28;19935;-68
2023/03/24 01:51:33;;;;;;;;;;;;;;;10.85;87.19;95538.75;5034049;28;20027;-68
2023/03/24 01:54:15;;;;;;;;;;;;;;;10.80;87.89;95536.88;5034141;28;19935;-68
2023/03/24 01:56:42;;;;;;;;;;;;;;;10.73;89.09;95559.84;5034162;28;19939;-68
2023/03/24 01:59:20;;;;;;;;;;;;;;;10.67;88.73;95540.63;5034377;28;20314;-67
2023/03/24 02:01:45;;;;;;;;;;;;;;;10.63;88.90;95562.31;5034313;28;19952;-70
2023/03/24 02:04:12;;;;;;;;;;;;;;;10.63;88.74;95552.63;5034381;28;19950;-70
2023/03/24 02:06:39;;;;;;;;;;;;;;;10.64;88.89;95548.97;5033831;28;19942;-70
2023/03/24 02:09:07;;;;;;;;;;;;;;;10.63;88.99;95552.63;5034235;28;19949;-71
2023/03/24 02:11:34;;;;;;;;;;;;;;;10.63;89.01;95550.00;5033650;28;20420;-71
2023/03/24 02:14:00;;;;;;;;;;;;;;;10.62;89.49;95548.41;5033612;28;19943;-71
2023/03/24 02:17:02;;;;;;;;;;;;;;;10.59;87.84;95527.94;5033643;28;19942;-71
2023/03/24 02:19:36;;;;;;;;;;;;;;;10.57;89.79;95541.25;4992373;28;19965;-70
2023/03/24 02:22:08;;;;;;;;;;;;;;;10.57;90.08;95537.84;5028783;28;19949;-70
2023/03/24 02:24:53;;;;;;;;;;;;;;;10.54;87.60;95520.78;5033536;28;19942;-70
2023/03/24 02:27:38;;;;;;;;;;;;;;;10.52;88.32;95530.72;5033521;28;20332;-71
2023/03/24 02:30:10;;;;;;;;;;;;;;;10.52;88.22;95530.72;5033720;28;19942;-70
2023/03/24 02:32:55;;;;;;;;;;;;;;;10.51;88.62;95536.19;5034009;28;19945;-69
2023/03/24 02:35:29;;;;;;;;;;;;;;;10.47;89.52;95537.69;5033507;28;20315;-75
2023/03/24 02:38:08;;;;;;;;;;;;;;;10.45;89.48;95527.44;5033737;28;19958;-69
2023/03/24 02:40:44;;;;;;;;;;;;;;;10.45;90.01;95521.41;5033359;28;19955;-69
2023/03/24 02:43:15;;;;;;;;;;;;;;;10.45;89.74;95521.41;5033259;28;19946;-70
2023/03/24 02:45:50;;;;;;;;;;;;;;;10.44;89.53;95518.00;5033416;28;19945;-69
2023/03/24 02:48:20;;;;;;;;;;;;;;;10.44;89.80;95511.97;5033369;28;19936;-69
2023/03/24 02:51:04;;;;;;;;;;;;;;;10.40;88.94;95505.63;5033410;28;20370;-70
2023/03/24 02:53:42;;;;;;;;;;;;;;;10.40;88.79;95505.63;5033378;28;19951;-75
2023/03/24 02:56:08;;;;;;;;;;;;;;;10.39;89.10;95504.03;5033588;28;19941;-68
2023/03/24 02:58:38;;;;;;;;;;;;;;;10.40;89.97;95509.03;5033659;28;19952;-72
2023/03/24 03:01:12;;;;;;;;;;;;;;;10.40;89.63;95498.56;5033243;28;19950;-72
2023/03/24 03:03:41;;;;;;;;;;;;;;;10.41;90.07;95507.19;5033131;28;20435;-72
2023/03/24 03:06:20;;;;;;;;;;;;;;;10.40;90.09;95508.25;5033197;28;20322;-72
2023/03/24 03:08:47;;;;;;;;;;;;;;;10.40;89.25;95500.38;5033711;28;19944;-72
2023/03/24 03:11:14;;;;;;;;;;;;;;;10.40;89.74;95500.38;5033149;28;19943;-72
2023/03/24 03:13:47;;;;;;;;;;;;;;;10.38;89.78;95500.63;5033383;28;20303;-68
2023/03/24 03:16:16;;;;;;;;;;;;;;;10.37;89.90;95496.41;5033793;28;19945;-69
2023/03/24 03:18:48;;;;;;;;;;;;;;;10.38;90.67;95494.59;5032962;28;20330;-70
2023/03/24 03:21:16;;;;;;;;;;;;;;;10.38;89.75;95492.75;5033997;28;19961;-69
2023/03/24 03:23:47;;;;;;;;;;;;;;;10.39;89.69;95496.16;5036956;28;19942;-70
2023/03/24 03:26:16;;;;;;;;;;;;;;;10.41;90.32;95494.88;5037630;28;19943;-70
2023/03/24 03:28:48;;;;;;;;;;;;;;;10.42;89.52;95490.47;5037016;28;19945;-70
2023/03/24 03:31:28;;;;;;;;;;;;;;;10.43;89.43;95487.56;5036812;28;20312;-70
2023/03/24 03:34:07;;;;;;;;;;;;;;;10.45;89.68;95487.34;5036841;28;20276;-71
2023/03/24 03:36:38;;;;;;;;;;;;;;;10.45;89.53;95496.00;5035645;28;19973;-71
2023/03/24 03:39:07;;;;;;;;;;;;;;;10.45;89.64;95489.97;5036508;28;19961;-71
2023/03/24 03:41:33;;;;;;;;;;;;;;;10.43;89.17;95487.56;5036544;28;19947;-71
2023/03/24 03:43:59;;;;;;;;;;;;;;;10.42;89.55;95487.84;5036993;28;20441;-71
2023/03/24 03:46:26;;;;;;;;;;;;;;;10.42;90.09;95496.47;5036353;28;19936;-71
2023/03/24 03:48:52;;;;;;;;;;;;;;;10.40;89.99;95490.69;5036397;28;19942;-75
2023/03/24 03:51:18;;;;;;;;;;;;;;;10.38;90.55;95484.09;5037320;28;20028;-78
2023/03/24 03:53:51;;;;;;;;;;;;;;;10.33;90.18;95488.25;5036678;28;19965;-68
2023/03/24 03:56:19;;;;;;;;;;;;;;;10.35;92.41;95495.84;5036632;28;19941;-69
2023/03/24 03:58:46;;;;;;;;;;;;;;;10.40;91.24;95492.53;5036173;28;20323;-67
2023/03/24 04:01:13;;;;;;;;;;;;;;;10.48;91.63;95485.03;5036168;28;19949;-68
2023/03/24 04:04:01;;;;;;;;;;;;;;;10.56;90.58;95473.34;5036483;28;19979;-68
2023/03/24 04:06:36;;;;;;;;;;;;;;;10.69;89.77;95469.59;5037160;28;19944;-68
2023/03/24 04:09:05;;;;;;;;;;;;;;;10.82;89.90;95464.00;5034907;28;19950;-67
2023/03/24 04:11:37;;;;;;;;;;;;;;;10.87;88.29;95448.31;5034941;28;19944;-71
2023/03/24 04:14:21;;;;;;;;;;;;;;;10.90;88.51;95441.81;5036080;28;19956;-71
2023/03/24 04:16:58;;;;;;;;;;;;;;;10.93;88.88;95447.34;5036458;28;19952;-71
2023/03/24 04:19:48;;;;;;;;;;;;;;;10.97;87.45;95426.66;5036013;28;19959;-71
2023/03/24 04:22:20;;;;;;;;;;;;;;;11.04;88.25;95440.38;5030327;28;19949;-71
2023/03/24 04:24:48;;;;;;;;;;;;;;;11.04;87.81;95448.25;5036539;28;20287;-71
2023/03/24 04:27:26;;;;;;;;;;;;;;;11.05;88.12;95455.09;5035681;28;20048;-68
2023/03/24 04:30:02;;;;;;;;;;;;;;;11.03;88.36;95454.53;5035186;28;19945;-71
2023/03/24 04:32:31;;;;;;;;;;;;;;;11.01;87.96;95464.50;5035193;28;20382;-70
2023/03/24 04:35:00;;;;;;;;;;;;;;;11.01;88.13;95467.09;5035501;28;19948;-70
2023/03/24 04:37:36;;;;;;;;;;;;;;;10.99;87.90;95463.16;5034202;28;19972;-70
2023/03/24 04:40:09;;;;;;;;;;;;;;;10.95;89.00;95471.50;5035541;28;19965;-71
2023/03/24 04:42:44;;;;;;;;;;;;;;;10.92;89.27;95477.25;5035404;28;19945;-71
2023/03/24 04:45:11;;;;;;;;;;;;;;;10.90;89.50;95486.41;5035329;28;19939;-77
2023/03/24 04:47:46;;;;;;;;;;;;;;;10.88;90.19;95491.88;5034998;28;19943;-75
2023/03/24 04:50:12;;;;;;;;;;;;;;;10.89;91.16;95513.66;5035362;28;19949;-74
2023/03/24 04:52:39;;;;;;;;;;;;;;;10.86;90.96;95520.16;5035632;28;20424;-76
2023/03/24 04:55:31;;;;;;;;;;;;;;;10.85;91.27;95523.03;5035284;28;20385;-75
2023/03/24 04:57:56;;;;;;;;;;;;;;;10.84;92.56;95527.50;5035369;28;20402;-74
2023/03/24 05:00:23;;;;;;;;;;;;;;;10.83;91.50;95525.88;5034951;28;20024;-75
2023/03/24 05:02:51;;;;;;;;;;;;;;;10.84;91.24;95540.59;5034994;28;19969;-71
2023/03/24 05:05:17;;;;;;;;;;;;;;;10.85;93.21;95555.28;5035137;28;20337;-75
2023/03/24 05:07:43;;;;;;;;;;;;;;;10.86;92.26;95562.13;5035057;28;19947;-76
2023/03/24 05:10:09;;;;;;;;;;;;;;;10.88;94.51;95567.16;5034983;28;19944;-75
2023/03/24 05:12:35;;;;;;;;;;;;;;;10.89;94.46;95571.34;5035803;28;19948;-75
2023/03/24 05:15:01;;;;;;;;;;;;;;;10.92;94.47;95576.13;5034779;28;19960;-78
2023/03/24 05:17:27;;;;;;;;;;;;;;;10.92;95.02;95576.91;5034963;28;20390;-79
2023/03/24 05:19:53;;;;;;;;;;;;;;;10.93;98.60;95577.69;5035630;28;19977;-79
2023/03/24 05:22:18;;;;;;;;;;;;;;;10.92;99.44;95569.03;5034855;28;19940;-70
2023/03/24 05:24:44;;;;;;;;;;;;;;;10.92;97.39;95568.25;5035120;28;19997;-66
2023/03/24 05:27:10;;;;;;;;;;;;;;;10.92;99.55;95573.50;5035534;28;19949;-67
2023/03/24 05:29:36;;;;;;;;;;;;;;;10.90;99.71;95576.34;5035143;28;19940;-66
2023/03/24 05:32:02;;;;;;;;;;;;;;;10.90;98.41;95572.94;5034864;28;19947;-67
2023/03/24 05:34:28;;;;;;;;;;;;;;;10.89;99.39;95574.75;5034505;28;19941;-67
2023/03/24 05:36:54;;;;;;;;;;;;;;;10.90;98.51;95571.13;5034408;28;20007;-67
2023/03/24 05:39:20;;;;;;;;;;;;;;;10.91;100.00;95571.91;5034452;28;20422;-67
2023/03/24 05:41:48;;;;;;;;;;;;;;;10.91;99.65;95574.53;5035062;28;19940;-73
2023/03/24 05:44:14;;;;;;;;;;;;;;;10.92;99.79;95569.03;5033777;28;19940;-70
2023/03/24 05:46:41;;;;;;;;;;;;;;;10.93;100.00;95573.25;5035185;28;20001;-69
2023/03/24 05:49:07;;;;;;;;;;;;;;;10.92;100.00;95571.66;5034249;28;19950;-70
2023/03/24 05:51:33;;;;;;;;;;;;;;;10.94;100.00;95581.91;5034583;28;19944;-70
2023/03/24 05:53:58;;;;;;;;;;;;;;;10.94;100.00;95576.66;5034969;28;19951;-70
2023/03/24 05:56:24;;;;;;;;;;;;;;;10.93;100.00;95581.09;5034392;28;19948;-69
2023/03/24 05:58:51;;;;;;;;;;;;;;;10.91;100.00;95575.31;5033559;28;20469;-77
2023/03/24 06:01:17;;;;;;;;;;;;;;;10.90;100.00;95576.34;5034015;28;20294;-77
2023/03/24 06:03:43;;;;;;;;;;;;;;;10.88;100.00;95570.56;5033271;28;20026;-76
2023/03/24 06:06:13;;;;;;;;;;;;;;;10.88;100.00;95575.03;5033426;28;19947;-75
2023/03/24 06:08:39;;;;;;;;;;;;;;;10.85;100.00;95573.66;5033291;28;20401;-74
2023/03/24 06:11:06;;;;;;;;;;;;;;;10.88;100.00;95575.03;5033265;28;19946;-74
2023/03/24 06:13:32;;;;;;;;;;;;;;;10.88;100.00;95583.66;5033321;28;19952;-73
2023/03/24 06:15:58;;;;;;;;;;;;;;;10.87;100.00;95581.28;5033266;28;19948;-70
2023/03/24 06:18:25;;;;;;;;;;;;;;;10.86;100.00;95574.47;5033557;28;19945;-74
2023/03/24 06:20:55;;;;;;;;;;;;;;;10.88;100.00;95581.06;5033275;28;19964;-74
2023/03/24 06:23:27;;;;;;;;;;;;;;;10.89;100.00;95584.47;5033202;28;20398;-74
2023/03/24 06:25:54;;;;;;;;;;;;;;;10.87;100.00;95583.91;5033572;28;19950;-74
2023/03/24 06:28:21;;;;;;;;;;;;;;;10.90;100.00;95588.69;5033707;28;19941;-75
2023/03/24 06:30:47;;;;;;;;;;;;;;;10.92;100.00;95586.63;5034282;28;20284;-74
2023/03/24 06:33:14;;;;;;;;;;;;;;;10.95;100.00;95588.75;5034184;28;19946;-74
2023/03/24 06:35:40;;;;;;;;;;;;;;;10.98;100.00;95588.25;5034294;28;19950;-81
2023/03/24 06:38:06;;;;;;;;;;;;;;;11.01;100.00;95598.28;5033667;28;19947;-74
2023/03/24 06:40:33;;;;;;;;;;;;;;;11.03;100.00;95603.28;5033268;28;19960;-73
2023/03/24 06:42:59;;;;;;;;;;;;;;;11.05;100.00;95599.38;5033240;28;19949;-74
2023/03/24 06:45:25;;;;;;;;;;;;;;;11.04;100.00;95592.53;5034301;28;20389;-74
2023/03/24 06:47:56;;;;;;;;;;;;;;;11.04;100.00;95599.63;5033568;28;19942;-74
2023/03/24 06:50:25;;;;;;;;;;;;;;;11.00;100.00;95591.44;5034420;28;19949;-74
2023/03/24 06:52:54;;;;;;;;;;;;;;;10.98;100.00;95596.13;5033473;28;19939;-70
2023/03/24 06:55:21;;;;;;;;;;;;;;;10.93;100.00;95603.94;5033766;28;19948;-69
2023/03/24 06:57:47;;;;;;;;;;;;;;;10.90;100.00;95605.22;5037691;28;19944;-85
2023/03/24 07:00:13;;;;;;;;;;;;;;;10.89;100.00;95602.81;5037704;28;19958;-85
2023/03/24 07:02:39;;;;;;;;;;;;;;;10.89;100.00;95615.94;5037560;28;19980;-85
2023/03/24 07:05:08;;;;;;;;;;;;;;;10.88;100.00;95624.84;5037399;28;20304;-86
2023/03/24 07:07:35;;;;;;;;;;;;;;;10.85;100.00;95620.84;5037515;28;19945;-87
2023/03/24 07:10:02;;;;;;;;;;;;;;;10.84;100.00;95632.41;5037459;28;19947;-86
2023/03/24 07:12:28;;;;;;;;;;;;;;;10.84;100.00;95631.59;5037225;28;19950;-69
2023/03/24 07:14:54;;;;;;;;;;;;;;;10.83;100.00;95632.63;5037689;28;19947;-74
2023/03/24 07:17:20;;;;;;;;;;;;;;;10.82;100.00;95636.31;5037598;28;19971;-73
2023/03/24 07:19:46;;;;;;;;;;;;;;;10.82;100.00;95631.06;5036936;28;20416;-74
2023/03/24 07:22:12;;;;;;;;;;;;;;;10.83;100.00;95637.88;5037298;28;19983;-74
2023/03/24 07:24:38;;;;;;;;;;;;;;;10.84;100.00;95636.84;5037563;28;19951;-73
2023/03/24 07:27:04;;;;;;;;;;;;;;;10.85;100.00;95633.97;5036966;28;19950;-72
2023/03/24 07:29:30;;;;;;;;;;;;;;;10.87;100.00;95636.38;5036963;28;19946;-69
2023/03/24 07:31:59;;;;;;;;;;;;;;;10.89;100.00;95637.72;5036939;28;19987;-75
2023/03/24 07:34:26;;;;;;;;;;;;;;;10.90;100.00;95647.19;5036810;28;19944;-73
2023/03/24 07:36:52;;;;;;;;;;;;;;;10.90;100.00;95649.03;5036747;28;19959;-74
2023/03/24 07:39:17;;;;;;;;;;;;;;;10.89;100.00;95648.19;5037489;28;19998;-73
2023/03/24 07:41:43;;;;;;;;;;;;;;;10.90;100.00;95652.44;5036666;28;19987;-73
2023/03/24 07:44:09;;;;;;;;;;;;;;;10.92;100.00;95647.75;5036963;28;19944;-74
2023/03/24 07:46:36;;;;;;;;;;;;;;;10.95;100.00;95646.47;5037644;28;19951;-74
2023/03/24 07:49:02;;;;;;;;;;;;;;;10.97;100.00;95654.88;5036908;28;19948;-73
2023/03/24 07:51:28;;;;;;;;;;;;;;;11.00;100.00;95662.25;5036564;28;19951;-69
2023/03/24 07:53:54;;;;;;;;;;;;;;;11.04;100.00;95662.59;5036506;28;20405;-68
2023/03/24 07:56:19;;;;;;;;;;;;;;;11.07;100.00;95665.53;5036478;28;19949;-69
2023/03/24 07:58:46;;;;;;;;;;;;;;;11.09;100.00;95673.97;5036424;28;19942;-69
2023/03/24 08:01:12;;;;;;;;;;;;;;;11.11;100.00;95684.22;5036274;28;20408;-69
2023/03/24 08:03:39;;;;;;;;;;;;;;;11.12;100.00;95677.94;5036196;28;19966;-69
2023/03/24 08:06:06;;;;;;;;;;;;;;;11.12;100.00;95683.19;5036176;28;20406;-68
2023/03/24 08:08:32;;;;;;;;;;;;;;;11.10;100.00;95675.53;5036441;28;20305;-82
2023/03/24 08:10:58;;;;;;;;;;;;;;;11.13;100.00;95674.28;5036230;28;19940;-66
2023/03/24 08:13:25;;;;;;;;;;;;;;;11.14;100.00;95679.28;5036123;28;20318;-65
2023/03/24 08:15:52;;;;;;;;;;;;;;;11.14;100.00;95666.16;5036017;28;19939;-65
2023/03/24 08:18:19;;;;;;;;;;;;;;;11.15;100.00;95667.75;5036073;28;20337;-66
2023/03/24 08:20:46;;;;;;;;;;;;;;;11.20;100.00;95661.00;5035887;28;19958;-65
2023/03/24 08:23:12;;;;;;;;;;;;;;;11.19;100.00;95662.81;5035982;28;19944;-66
2023/03/24 08:25:38;;;;;;;;;;;;;;;11.16;100.00;95656.22;5036004;28;19943;-73
2023/03/24 08:28:04;;;;;;;;;;;;;;;11.16;100.00;95652.81;5036413;28;19943;-70
2023/03/24 08:30:29;;;;;;;;;;;;;;;11.15;100.00;95641.50;5035809;28;19950;-70
2023/03/24 08:32:57;;;;;;;;;;;;;;;11.12;100.00;95638.56;5036057;28;19951;-70
2023/03/24 08:35:24;;;;;;;;;;;;;;;11.13;100.00;95627.06;5035686;28;19945;-69
2023/03/24 08:37:50;;;;;;;;;;;;;;;11.10;100.00;95606.53;5035513;28;19965;-70
2023/03/24 08:40:19;;;;;;;;;;;;;;;11.13;100.00;95590.31;5035522;28;19959;-69
2023/03/24 08:42:53;;;;;;;;;;;;;;;11.12;100.00;95584.25;5035939;28;20399;-69
2023/03/24 08:45:20;;;;;;;;;;;;;;;11.17;100.00;95613.19;5036087;28;19956;-70
2023/03/24 08:47:50;;;;;;;;;;;;;;;11.22;100.00;95598.56;5036039;28;19944;-73
2023/03/24 08:50:16;;;;;;;;;;;;;;;11.26;100.00;95594.41;5035989;28;19946;-73
2023/03/24 08:52:46;;;;;;;;;;;;;;;11.31;100.00;95611.00;5035363;28;19966;-72
2023/03/24 08:55:13;;;;;;;;;;;;;;;11.35;100.00;95629.69;5035306;28;19945;-73
2023/03/24 08:57:39;;;;;;;;;;;;;;;11.38;100.00;95644.94;5035409;28;20324;-73
2023/03/24 09:00:14;;;;;;;;;;;;;;;11.40;100.00;95648.13;5035572;28;19953;-73
2023/03/24 09:02:40;;;;;;;;;;;;;;;11.40;100.00;95645.50;5035251;28;19968;-73
2023/03/24 09:05:07;;;;;;;;;;;;;;;11.42;100.00;95635.56;5035237;28;19950;-87
2023/03/24 09:07:33;;;;;;;;;;;;;;;11.46;100.00;95643.75;5035218;28;19946;-87
2023/03/24 09:09:59;;;;;;;;;;;;;;;11.49;100.00;95638.03;5035043;28;19939;-87
2023/03/24 09:12:25;;;;;;;;;;;;;;;11.53;100.00;95637.28;5035708;28;19952;-85
2023/03/24 09:14:51;;;;;;;;;;;;;;;11.60;100.00;95626.59;5034907;28;19948;-80
2023/03/24 09:17:17;;;;;;;;;;;;;;;11.75;100.00;95602.34;5035792;28;19941;-78
2023/03/24 09:19:43;;;;;;;;;;;;;;;11.99;100.00;95608.19;5034148;28;19950;-69
2023/03/24 09:22:09;;;;;;;;;;;;;;;12.43;100.00;95617.78;5034844;28;19993;-66
2023/03/24 09:24:35;;;;;;;;;;;;;;;12.72;100.00;95631.44;5034763;28;20313;-70
2023/03/24 09:27:01;;;;;;;;;;;;;;;12.76;100.00;95635.94;5035220;28;19936;-70
2023/03/24 09:29:28;;;;;;;;;;;;;;;12.80;100.00;95626.50;5034694;28;20361;-68
2023/03/24 09:31:55;;;;;;;;;;;;;;;12.92;100.00;95618.44;5035267;28;19945;-69
2023/03/24 09:34:22;;;;;;;;;;;;;;;13.08;100.00;95600.09;5034906;28;19957;-69
2023/03/24 09:36:48;;;;;;;;;;;;;;;13.19;100.00;95620.19;5034517;28;19957;-70
2023/03/24 09:39:14;;;;;;;;;;;;;;;13.19;100.00;95623.63;5035090;28;19948;-66
2023/03/24 09:41:43;;;;;;;;;;;;;;;13.14;100.00;95631.47;5034466;28;19968;-70
2023/03/24 09:44:20;;;;;;;;;;;;;;;13.23;100.00;95642.34;5034214;28;19946;-68
2023/03/24 09:46:51;;;;;;;;;;;;;;;13.49;100.00;95632.75;5035278;28;19950;-69
2023/03/24 09:49:30;;;;;;;;;;;;;;;13.64;100.00;95626.75;5035179;28;19947;-70
2023/03/24 09:52:02;;;;;;;;;;;;;;;13.70;100.00;95595.97;5034508;28;20397;-69
2023/03/24 09:54:28;;;;;;;;;;;;;;;13.90;100.00;95608.41;5034304;28;19956;-70
2023/03/24 09:56:54;;;;;;;;;;;;;;;14.10;100.00;95608.47;5034503;28;19939;-78
2023/03/24 09:59:37;;;;;;;;;;;;;;;14.22;98.45;95597.69;5034255;28;19944;-77
2023/03/24 10:02:30;;;;;;;;;;;;;;;14.35;98.97;95618.25;5034404;28;19973;-70
2023/03/24 10:04:56;;;;;;;;;;;;;;;14.44;98.72;95621.19;5032469;28;19956;-71
2023/03/24 10:07:33;;;;;;;;;;;;;;;14.56;93.87;95584.81;5034066;28;20458;-70
2023/03/24 10:09:59;;;;;;;;;;;;;;;14.65;94.05;95597.47;5033979;28;19968;-70
2023/03/24 10:12:28;;;;;;;;;;;;;;;14.67;91.26;95582.16;5034206;28;19963;-69
2023/03/24 10:15:03;;;;;;;;;;;;;;;14.60;91.62;95593.00;5033998;28;19941;-70
2023/03/24 10:17:47;;;;;;;;;;;;;;;14.44;91.25;95600.06;5034499;28;20414;-75
2023/03/24 10:20:19;;;;;;;;;;;;;;;14.35;92.12;95607.72;5034099;28;19940;-69
2023/03/24 10:22:51;;;;;;;;;;;;;;;14.38;93.34;95601.13;5033899;28;19958;-69
2023/03/24 10:25:20;;;;;;;;;;;;;;;14.50;92.32;95595.59;5033858;28;19941;-69
2023/03/24 10:27:50;;;;;;;;;;;;;;;14.50;90.90;95601.66;5033863;28;19947;-69
2023/03/24 10:30:25;;;;;;;;;;;;;;;14.41;89.34;95582.94;5033425;28;19936;-69
2023/03/24 10:32:51;;;;;;;;;;;;;;;14.28;89.01;95599.28;5033978;28;19946;-69
2023/03/24 10:35:20;;;;;;;;;;;;;;;14.23;89.90;95609.03;5032902;28;19946;-67
2023/03/24 10:37:46;;;;;;;;;;;;;;;14.30;91.81;95625.38;5033646;28;19960;-73
2023/03/24 10:40:15;;;;;;;;;;;;;;;14.36;89.42;95619.06;5033539;28;20298;-73
2023/03/24 10:42:42;;;;;;;;;;;;;;;14.33;88.69;95623.00;5033518;28;19963;-73
2023/03/24 10:45:12;;;;;;;;;;;;;;;14.20;87.56;95605.06;5034266;28;19944;-73
2023/03/24 10:47:38;;;;;;;;;;;;;;;14.19;90.30;95625.38;5034080;28;19942;-73
2023/03/24 10:50:06;;;;;;;;;;;;;;;14.25;88.07;95615.59;5033540;28;19968;-73
2023/03/24 10:52:42;;;;;;;;;;;;;;;14.19;86.84;95632.47;5033874;28;19959;-73
2023/03/24 10:55:16;;;;;;;;;;;;;;;14.12;86.87;95621.41;5033604;28;20318;-70
2023/03/24 10:58:02;;;;;;;;;;;;;;;14.19;86.61;95604.28;5033564;28;19945;-70
2023/03/24 11:00:30;;;;;;;;;;;;;;;14.44;87.37;95609.84;5033037;28;19960;-70
2023/03/24 11:03:18;;;;;;;;;;;;;;;14.53;84.95;95587.97;5033196;28;19983;-70
2023/03/24 11:05:44;;;;;;;;;;;;;;;14.57;83.54;95590.88;5027716;28;20407;-69
2023/03/24 11:08:13;;;;;;;;;;;;;;;14.68;82.24;95575.81;5033216;28;19941;-68
2023/03/24 11:10:39;;;;;;;;;;;;;;;14.77;83.82;95590.88;5033318;28;20421;-68
2023/03/24 11:13:15;;;;;;;;;;;;;;;14.81;79.19;95552.34;5033444;28;19947;-84
2023/03/24 11:15:50;;;;;;;;;;;;;;;14.80;79.63;95555.22;5033505;28;19942;-70
2023/03/24 11:18:17;;;;;;;;;;;;;;;14.85;80.47;95579.00;5032888;28;19945;-69
2023/03/24 11:20:57;;;;;;;;;;;;;;;14.81;79.43;95580.59;5033677;28;19965;-69
2023/03/24 11:23:29;;;;;;;;;;;;;;;14.84;79.62;95584.53;5033120;28;19986;-69
2023/03/24 11:26:04;;;;;;;;;;;;;;;15.08;79.66;95568.94;5033744;28;19953;-69
2023/03/24 11:28:34;;;;;;;;;;;;;;;15.08;75.83;95539.88;5033119;28;20435;-69
2023/03/24 11:31:05;;;;;;;;;;;;;;;14.82;75.88;95542.56;5034000;28;19951;-76
2023/03/24 11:33:32;;;;;;;;;;;;;;;14.64;76.64;95572.94;5034014;28;19940;-71
2023/03/24 11:35:59;;;;;;;;;;;;;;;14.54;74.91;95573.69;5033066;28;20335;-73
2023/03/24 11:38:30;;;;;;;;;;;;;;;14.47;75.45;95556.53;5033681;28;19952;-72
2023/03/24 11:40:57;;;;;;;;;;;;;;;14.41;75.76;95572.38;5032859;28;20536;-72
2023/03/24 11:43:24;;;;;;;;;;;;;;;14.27;74.48;95552.06;5034708;28;20315;-72
2023/03/24 11:45:55;;;;;;;;;;;;;;;14.19;76.28;95558.63;5036601;28;19968;-72
2023/03/24 11:48:58;;;;;;;;;;;;;;;14.12;75.72;95552.84;5036713;28;19943;-72
2023/03/24 11:51:35;;;;;;;;;;;;;;;14.07;76.53;95548.38;4996011;28;19949;-73
2023/03/24 11:54:02;;;;;;;;;;;;;;;14.00;75.56;95555.72;5031249;28;20413;-73
2023/03/24 11:56:31;;;;;;;;;;;;;;;13.96;74.70;95552.84;5036226;28;20415;-72
2023/03/24 11:59:16;;;;;;;;;;;;;;;13.95;74.57;95561.78;5036281;28;20299;-72
2023/03/24 12:01:47;;;;;;;;;;;;;;;13.89;74.48;95546.22;5036386;28;19962;-73
2023/03/24 12:04:13;;;;;;;;;;;;;;;13.91;75.13;95549.38;5036258;28;19948;-72
2023/03/24 12:06:42;;;;;;;;;;;;;;;13.92;74.68;95551.75;5036302;28;20418;-71
2023/03/24 12:09:14;;;;;;;;;;;;;;;13.95;75.12;95555.72;5036188;28;19942;-68
2023/03/24 12:11:58;;;;;;;;;;;;;;;14.08;74.91;95544.66;5037055;28;19939;-67
2023/03/24 12:14:33;;;;;;;;;;;;;;;14.26;73.67;95535.47;5034983;28;19963;-68
2023/03/24 12:17:02;;;;;;;;;;;;;;;14.43;75.22;95569.47;5036173;28;19943;-69
2023/03/24 12:19:54;;;;;;;;;;;;;;;14.52;75.43;95559.19;5035974;28;19948;-67
2023/03/24 12:22:43;;;;;;;;;;;;;;;14.45;74.80;95548.91;5033952;28;19971;-70
2023/03/24 12:25:31;;;;;;;;;;;;;;;14.49;74.85;95557.06;5036590;28;19940;-66
2023/03/24 12:27:57;;;;;;;;;;;;;;;14.51;74.20;95568.97;5035590;28;19973;-77
2023/03/24 12:30:29;;;;;;;;;;;;;;;14.46;73.89;95553.13;5036423;28;19939;-77
2023/03/24 12:32:55;;;;;;;;;;;;;;;14.52;76.38;95569.75;5035916;28;19946;-78
2023/03/24 12:35:30;;;;;;;;;;;;;;;14.54;74.72;95571.06;5035629;28;19976;-77
2023/03/24 12:38:08;;;;;;;;;;;;;;;14.48;73.64;95556.28;5036228;28;19960;-77
2023/03/24 12:40:45;;;;;;;;;;;;;;;14.47;73.36;95572.38;5035584;28;19943;-78
2023/03/24 12:43:18;;;;;;;;;;;;;;;14.49;75.80;95580.81;5035815;28;19942;-66
2023/03/24 12:45:53;;;;;;;;;;;;;;;14.48;74.20;95558.91;5035401;28;19989;-72
2023/03/24 12:48:27;;;;;;;;;;;;;;;14.45;75.44;95569.19;5035602;28;19938;-73
2023/03/24 12:51:05;;;;;;;;;;;;;;;14.48;74.12;95555.50;5035743;28;19949;-73
2023/03/24 12:53:40;;;;;;;;;;;;;;;14.50;74.80;95548.13;5035732;28;19945;-73
2023/03/24 12:56:14;;;;;;;;;;;;;;;14.52;73.81;95538.09;5035224;28;19955;-73